sensor_id;sensor_type;location;lat;lon;timestamp;temperature;humidity
60723;DHT22;46574;52.818;6.516;2023-05-10T00:01:46;13.70;99.90
60723;DHT22;46574;52.818;6.516;2023-05-10T00:04:12;13.60;99.90
60723;DHT22;46574;52.818;6.516;2023-05-10T00:06:37;13.60;99.90
60723;DHT22;46574;52.818;6.516;2023-05-10T00:09:03;13.50;99.90
60723;DHT22;46574;52.818;6.516;2023-05-10T00:11:29;13.50;99.90
60723;DHT22;46574;52.818;6.516;2023-05-10T00:13:55;13.50;99.90
60723;DHT22;46574;52.818;6.516;2023-05-10T00:16:20;13.50;99.90
60723;DHT22;46574;52.818;6.516;2023-05-10T00:18:46;13.50;99.90
60723;DHT22;46574;52.818;6.516;2023-05-10T00:21:12;13.50;99.90
60723;DHT22;46574;52.818;6.516;2023-05-10T00:23:37;13.50;99.90
60723;DHT22;46574;52.818;6.516;2023-05-10T00:26:03;13.50;99.90
60723;DHT22;46574;52.818;6.516;2023-05-10T00:28:29;13.50;99.90
60723;DHT22;46574;52.818;6.516;2023-05-10T00:30:54;13.50;99.90
60723;DHT22;46574;52.818;6.516;2023-05-10T00:33:21;13.50;99.90
60723;DHT22;46574;52.818;6.516;2023-05-10T00:35:46;13.50;99.90
60723;DHT22;46574;52.818;6.516;2023-05-10T00:38:12;13.50;99.90
60723;DHT22;46574;52.818;6.516;2023-05-10T00:40:37;13.50;99.90
60723;DHT22;46574;52.818;6.516;2023-05-10T00:43:03;13.50;99.90
60723;DHT22;46574;52.818;6.516;2023-05-10T00:45:31;13.50;99.90
60723;DHT22;46574;52.818;6.516;2023-05-10T00:47:58;13.50;99.90
60723;DHT22;46574;52.818;6.516;2023-05-10T00:50:25;13.50;99.90
60723;DHT22;46574;52.818;6.516;2023-05-10T00:52:51;13.50;99.90
60723;DHT22;46574;52.818;6.516;2023-05-10T00:55:19;13.50;99.90
60723;DHT22;46574;52.818;6.516;2023-05-10T00:57:44;13.50;99.90
60723;DHT22;46574;52.818;6.516;2023-05-10T01:00:12;13.50;99.90
60723;DHT22;46574;52.818;6.516;2023-05-10T01:02:38;13.50;99.90
60723;DHT22;46574;52.818;6.516;2023-05-10T01:05:04;13.40;99.90
60723;DHT22;46574;52.818;6.516;2023-05-10T01:07:30;13.50;99.90
60723;DHT22;46574;52.818;6.516;2023-05-10T01:09:56;13.40;99.90
60723;DHT22;46574;52.818;6.516;2023-05-10T01:12:23;13.40;99.90
60723;DHT22;46574;52.818;6.516;2023-05-10T01:14:48;13.40;99.90
60723;DHT22;46574;52.818;6.516;2023-05-10T01:17:14;13.40;99.90
60723;DHT22;46574;52.818;6.516;2023-05-10T01:19:41;13.40;99.90
60723;DHT22;46574;52.818;6.516;2023-05-10T01:25:29;13.40;99.90
60723;DHT22;46574;52.818;6.516;2023-05-10T01:28:15;13.40;99.90
60723;DHT22;46574;52.818;6.516;2023-05-10T01:31:03;13.40;99.90
60723;DHT22;46574;52.818;6.516;2023-05-10T01:33:43;13.40;99.90
60723;DHT22;46574;52.818;6.516;2023-05-10T01:36:32;13.40;99.90
60723;DHT22;46574;52.818;6.516;2023-05-10T01:39:24;13.30;99.90
60723;DHT22;46574;52.818;6.516;2023-05-10T01:41:52;13.30;99.90
60723;DHT22;46574;52.818;6.516;2023-05-10T01:44:34;13.20;99.90
60723;DHT22;46574;52.818;6.516;2023-05-10T01:49:41;13.20;99.90
60723;DHT22;46574;52.818;6.516;2023-05-10T01:52:11;13.20;99.90
60723;DHT22;46574;52.818;6.516;2023-05-10T01:54:41;13.30;99.90
60723;DHT22;46574;52.818;6.516;2023-05-10T01:57:09;13.20;99.90
60723;DHT22;46574;52.818;6.516;2023-05-10T01:59:38;13.20;99.90
60723;DHT22;46574;52.818;6.516;2023-05-10T02:02:07;13.20;99.90
60723;DHT22;46574;52.818;6.516;2023-05-10T02:04:38;13.30;99.90
60723;DHT22;46574;52.818;6.516;2023-05-10T02:07:05;13.20;99.90
60723;DHT22;46574;52.818;6.516;2023-05-10T02:09:32;13.20;99.90
60723;DHT22;46574;52.818;6.516;2023-05-10T02:11:59;13.20;99.90
60723;DHT22;46574;52.818;6.516;2023-05-10T02:14:30;13.20;99.90
60723;DHT22;46574;52.818;6.516;2023-05-10T02:16:58;13.20;99.90
60723;DHT22;46574;52.818;6.516;2023-05-10T02:19:26;13.20;99.90
60723;DHT22;46574;52.818;6.516;2023-05-10T02:21:54;13.20;99.90
60723;DHT22;46574;52.818;6.516;2023-05-10T02:24:21;13.20;99.90
60723;DHT22;46574;52.818;6.516;2023-05-10T02:26:49;13.20;99.90
60723;DHT22;46574;52.818;6.516;2023-05-10T02:29:17;13.20;99.90
60723;DHT22;46574;52.818;6.516;2023-05-10T02:31:43;13.20;99.90
60723;DHT22;46574;52.818;6.516;2023-05-10T02:34:10;13.20;99.90
60723;DHT22;46574;52.818;6.516;2023-05-10T02:36:37;13.20;99.90
60723;DHT22;46574;52.818;6.516;2023-05-10T02:39:03;13.30;99.90
60723;DHT22;46574;52.818;6.516;2023-05-10T02:41:32;13.20;99.90
60723;DHT22;46574;52.818;6.516;2023-05-10T02:43:59;13.20;99.90
60723;DHT22;46574;52.818;6.516;2023-05-10T02:46:26;13.20;99.90
60723;DHT22;46574;52.818;6.516;2023-05-10T02:48:52;13.20;99.90
60723;DHT22;46574;52.818;6.516;2023-05-10T02:51:19;13.20;99.90
60723;DHT22;46574;52.818;6.516;2023-05-10T02:53:48;13.20;99.90
60723;DHT22;46574;52.818;6.516;2023-05-10T02:56:23;13.20;99.90
60723;DHT22;46574;52.818;6.516;2023-05-10T02:58:50;13.10;99.90
60723;DHT22;46574;52.818;6.516;2023-05-10T03:01:16;13.10;99.90
60723;DHT22;46574;52.818;6.516;2023-05-10T03:03:41;13.10;99.90
60723;DHT22;46574;52.818;6.516;2023-05-10T03:06:07;13.10;99.90
60723;DHT22;46574;52.818;6.516;2023-05-10T03:08:33;13.10;99.90
60723;DHT22;46574;52.818;6.516;2023-05-10T03:13:44;13.10;99.90
60723;DHT22;46574;52.818;6.516;2023-05-10T03:16:16;13.10;99.90
60723;DHT22;46574;52.818;6.516;2023-05-10T03:21:22;13.00;99.90
60723;DHT22;46574;52.818;6.516;2023-05-10T03:24:04;13.00;99.90
60723;DHT22;46574;52.818;6.516;2023-05-10T03:26:32;12.90;99.90
60723;DHT22;46574;52.818;6.516;2023-05-10T03:28:58;12.90;99.90
60723;DHT22;46574;52.818;6.516;2023-05-10T03:31:25;12.90;99.90
60723;DHT22;46574;52.818;6.516;2023-05-10T03:33:51;12.80;99.90
60723;DHT22;46574;52.818;6.516;2023-05-10T03:36:18;12.90;99.90
60723;DHT22;46574;52.818;6.516;2023-05-10T03:38:44;12.90;99.90
60723;DHT22;46574;52.818;6.516;2023-05-10T03:41:09;12.90;99.90
60723;DHT22;46574;52.818;6.516;2023-05-10T03:43:35;12.90;99.90
60723;DHT22;46574;52.818;6.516;2023-05-10T03:46:05;12.90;99.90
60723;DHT22;46574;52.818;6.516;2023-05-10T03:48:32;12.90;99.90
60723;DHT22;46574;52.818;6.516;2023-05-10T03:50:57;12.90;99.90
60723;DHT22;46574;52.818;6.516;2023-05-10T03:53:23;12.90;99.90
60723;DHT22;46574;52.818;6.516;2023-05-10T03:55:49;12.90;99.90
60723;DHT22;46574;52.818;6.516;2023-05-10T03:58:15;12.90;99.90
60723;DHT22;46574;52.818;6.516;2023-05-10T04:00:41;12.90;99.90
60723;DHT22;46574;52.818;6.516;2023-05-10T04:03:09;12.90;99.90
60723;DHT22;46574;52.818;6.516;2023-05-10T04:05:35;12.90;99.90
60723;DHT22;46574;52.818;6.516;2023-05-10T04:08:01;12.90;99.90
60723;DHT22;46574;52.818;6.516;2023-05-10T04:10:27;12.90;99.90
60723;DHT22;46574;52.818;6.516;2023-05-10T04:12:53;12.90;99.90
60723;DHT22;46574;52.818;6.516;2023-05-10T04:15:19;12.90;99.90
60723;DHT22;46574;52.818;6.516;2023-05-10T04:17:44;12.90;99.90
60723;DHT22;46574;52.818;6.516;2023-05-10T04:20:11;12.90;99.90
60723;DHT22;46574;52.818;6.516;2023-05-10T04:22:36;12.90;99.90
60723;DHT22;46574;52.818;6.516;2023-05-10T04:25:02;12.90;99.90
60723;DHT22;46574;52.818;6.516;2023-05-10T04:27:28;12.90;99.90
60723;DHT22;46574;52.818;6.516;2023-05-10T04:29:53;12.90;99.90
60723;DHT22;46574;52.818;6.516;2023-05-10T04:32:19;12.90;99.90
60723;DHT22;46574;52.818;6.516;2023-05-10T04:34:46;12.90;99.90
60723;DHT22;46574;52.818;6.516;2023-05-10T04:37:11;13.00;99.90
60723;DHT22;46574;52.818;6.516;2023-05-10T04:39:37;13.00;99.90
60723;DHT22;46574;52.818;6.516;2023-05-10T04:42:03;13.00;99.90
60723;DHT22;46574;52.818;6.516;2023-05-10T04:44:33;13.00;99.90
60723;DHT22;46574;52.818;6.516;2023-05-10T04:46:59;13.00;99.90
60723;DHT22;46574;52.818;6.516;2023-05-10T04:49:25;13.00;99.90
60723;DHT22;46574;52.818;6.516;2023-05-10T04:51:50;13.00;99.90
60723;DHT22;46574;52.818;6.516;2023-05-10T04:54:16;13.10;99.90
60723;DHT22;46574;52.818;6.516;2023-05-10T04:56:42;13.10;99.90
60723;DHT22;46574;52.818;6.516;2023-05-10T04:59:08;13.00;99.90
60723;DHT22;46574;52.818;6.516;2023-05-10T05:01:33;13.10;99.90
60723;DHT22;46574;52.818;6.516;2023-05-10T05:03:59;13.00;99.90
60723;DHT22;46574;52.818;6.516;2023-05-10T05:06:25;13.00;99.90
60723;DHT22;46574;52.818;6.516;2023-05-10T05:08:52;13.10;99.90
60723;DHT22;46574;52.818;6.516;2023-05-10T05:11:18;13.00;99.90
60723;DHT22;46574;52.818;6.516;2023-05-10T05:13:44;13.00;99.90
60723;DHT22;46574;52.818;6.516;2023-05-10T05:16:09;13.00;99.90
60723;DHT22;46574;52.818;6.516;2023-05-10T05:18:36;13.10;99.90
60723;DHT22;46574;52.818;6.516;2023-05-10T05:21:01;13.10;99.90
60723;DHT22;46574;52.818;6.516;2023-05-10T05:23:27;13.10;99.90
60723;DHT22;46574;52.818;6.516;2023-05-10T05:25:53;13.10;99.90
60723;DHT22;46574;52.818;6.516;2023-05-10T05:28:20;13.10;99.90
60723;DHT22;46574;52.818;6.516;2023-05-10T05:30:46;13.10;99.90
60723;DHT22;46574;52.818;6.516;2023-05-10T05:33:13;13.20;99.90
60723;DHT22;46574;52.818;6.516;2023-05-10T05:35:39;13.20;99.90
60723;DHT22;46574;52.818;6.516;2023-05-10T05:38:05;13.20;99.90
60723;DHT22;46574;52.818;6.516;2023-05-10T05:40:31;13.20;99.90
60723;DHT22;46574;52.818;6.516;2023-05-10T05:42:57;13.20;99.90
60723;DHT22;46574;52.818;6.516;2023-05-10T05:45:22;13.20;99.90
60723;DHT22;46574;52.818;6.516;2023-05-10T05:47:48;13.20;99.90
60723;DHT22;46574;52.818;6.516;2023-05-10T05:50:13;13.20;99.90
60723;DHT22;46574;52.818;6.516;2023-05-10T05:52:39;13.20;99.90
60723;DHT22;46574;52.818;6.516;2023-05-10T05:55:05;13.20;99.90
60723;DHT22;46574;52.818;6.516;2023-05-10T05:57:31;13.20;99.90
60723;DHT22;46574;52.818;6.516;2023-05-10T05:59:56;13.20;99.90
60723;DHT22;46574;52.818;6.516;2023-05-10T06:02:22;13.20;99.90
60723;DHT22;46574;52.818;6.516;2023-05-10T06:04:47;13.20;99.90
60723;DHT22;46574;52.818;6.516;2023-05-10T06:07:13;13.20;99.90
60723;DHT22;46574;52.818;6.516;2023-05-10T06:09:39;13.20;99.90
60723;DHT22;46574;52.818;6.516;2023-05-10T06:12:04;13.20;99.90
60723;DHT22;46574;52.818;6.516;2023-05-10T06:14:30;13.20;99.90
60723;DHT22;46574;52.818;6.516;2023-05-10T06:16:56;13.20;99.90
60723;DHT22;46574;52.818;6.516;2023-05-10T06:19:21;13.20;99.90
60723;DHT22;46574;52.818;6.516;2023-05-10T06:21:47;13.20;99.90
60723;DHT22;46574;52.818;6.516;2023-05-10T06:24:13;13.20;99.90
60723;DHT22;46574;52.818;6.516;2023-05-10T06:26:38;13.20;99.90
60723;DHT22;46574;52.818;6.516;2023-05-10T06:29:04;13.20;99.90
60723;DHT22;46574;52.818;6.516;2023-05-10T06:31:29;13.20;99.90
60723;DHT22;46574;52.818;6.516;2023-05-10T06:33:55;13.20;99.90
60723;DHT22;46574;52.818;6.516;2023-05-10T06:36:21;13.20;99.90
60723;DHT22;46574;52.818;6.516;2023-05-10T06:38:47;13.30;99.90
60723;DHT22;46574;52.818;6.516;2023-05-10T06:41:13;13.20;99.90
60723;DHT22;46574;52.818;6.516;2023-05-10T06:43:38;13.20;99.90
60723;DHT22;46574;52.818;6.516;2023-05-10T06:46:06;13.20;99.90
60723;DHT22;46574;52.818;6.516;2023-05-10T06:48:32;13.20;99.90
60723;DHT22;46574;52.818;6.516;2023-05-10T06:50:58;13.30;99.90
60723;DHT22;46574;52.818;6.516;2023-05-10T06:53:24;13.20;99.90
60723;DHT22;46574;52.818;6.516;2023-05-10T06:55:49;13.30;99.90
60723;DHT22;46574;52.818;6.516;2023-05-10T06:58:15;13.30;99.90
60723;DHT22;46574;52.818;6.516;2023-05-10T07:00:41;13.20;99.90
60723;DHT22;46574;52.818;6.516;2023-05-10T07:03:09;13.20;99.90
60723;DHT22;46574;52.818;6.516;2023-05-10T07:05:36;13.20;99.90
60723;DHT22;46574;52.818;6.516;2023-05-10T07:08:01;13.20;99.90
60723;DHT22;46574;52.818;6.516;2023-05-10T07:10:27;13.20;99.90
60723;DHT22;46574;52.818;6.516;2023-05-10T07:12:53;13.30;99.90
60723;DHT22;46574;52.818;6.516;2023-05-10T07:15:18;13.40;99.90
60723;DHT22;46574;52.818;6.516;2023-05-10T07:17:44;13.40;99.90
60723;DHT22;46574;52.818;6.516;2023-05-10T07:20:11;13.40;99.90
60723;DHT22;46574;52.818;6.516;2023-05-10T07:22:36;13.40;99.90
60723;DHT22;46574;52.818;6.516;2023-05-10T07:25:02;13.50;99.90
60723;DHT22;46574;52.818;6.516;2023-05-10T07:27:28;13.50;99.90
60723;DHT22;46574;52.818;6.516;2023-05-10T07:29:53;13.50;99.90
60723;DHT22;46574;52.818;6.516;2023-05-10T07:32:20;13.40;99.90
60723;DHT22;46574;52.818;6.516;2023-05-10T07:34:46;13.50;99.90
60723;DHT22;46574;52.818;6.516;2023-05-10T07:37:12;13.50;99.90
60723;DHT22;46574;52.818;6.516;2023-05-10T07:39:38;13.60;99.90
60723;DHT22;46574;52.818;6.516;2023-05-10T07:42:03;13.60;99.90
60723;DHT22;46574;52.818;6.516;2023-05-10T07:44:29;13.70;99.90
60723;DHT22;46574;52.818;6.516;2023-05-10T07:46:55;13.70;99.90
60723;DHT22;46574;52.818;6.516;2023-05-10T07:49:21;13.60;99.90
60723;DHT22;46574;52.818;6.516;2023-05-10T07:51:47;13.70;99.90
60723;DHT22;46574;52.818;6.516;2023-05-10T07:54:13;13.70;99.90
60723;DHT22;46574;52.818;6.516;2023-05-10T07:56:40;13.70;99.90
60723;DHT22;46574;52.818;6.516;2023-05-10T07:59:15;13.80;99.90
60723;DHT22;46574;52.818;6.516;2023-05-10T08:01:41;13.70;99.90
60723;DHT22;46574;52.818;6.516;2023-05-10T08:04:07;13.70;99.90
60723;DHT22;46574;52.818;6.516;2023-05-10T08:06:33;13.70;99.90
60723;DHT22;46574;52.818;6.516;2023-05-10T08:08:58;13.80;99.90
60723;DHT22;46574;52.818;6.516;2023-05-10T08:11:24;13.80;99.90
60723;DHT22;46574;52.818;6.516;2023-05-10T08:13:51;13.80;99.90
60723;DHT22;46574;52.818;6.516;2023-05-10T08:16:17;13.90;99.90
60723;DHT22;46574;52.818;6.516;2023-05-10T08:18:44;14.00;99.90
60723;DHT22;46574;52.818;6.516;2023-05-10T08:21:13;14.10;99.90
60723;DHT22;46574;52.818;6.516;2023-05-10T08:23:39;14.10;99.90
60723;DHT22;46574;52.818;6.516;2023-05-10T08:26:06;14.20;99.90
60723;DHT22;46574;52.818;6.516;2023-05-10T08:28:34;14.20;99.90
60723;DHT22;46574;52.818;6.516;2023-05-10T08:31:00;14.20;99.90
60723;DHT22;46574;52.818;6.516;2023-05-10T08:33:26;14.20;99.90
60723;DHT22;46574;52.818;6.516;2023-05-10T08:35:51;14.10;99.90
60723;DHT22;46574;52.818;6.516;2023-05-10T08:38:18;14.10;99.90
60723;DHT22;46574;52.818;6.516;2023-05-10T08:40:44;14.00;99.90
60723;DHT22;46574;52.818;6.516;2023-05-10T08:43:12;14.00;99.90
60723;DHT22;46574;52.818;6.516;2023-05-10T08:45:43;14.00;99.90
60723;DHT22;46574;52.818;6.516;2023-05-10T08:48:11;14.00;99.90
60723;DHT22;46574;52.818;6.516;2023-05-10T08:50:38;14.00;99.90
60723;DHT22;46574;52.818;6.516;2023-05-10T08:53:06;14.10;99.90
60723;DHT22;46574;52.818;6.516;2023-05-10T08:55:34;14.20;99.90
60723;DHT22;46574;52.818;6.516;2023-05-10T08:58:02;14.20;99.90
60723;DHT22;46574;52.818;6.516;2023-05-10T09:00:29;14.10;99.90
60723;DHT22;46574;52.818;6.516;2023-05-10T09:02:55;14.10;99.90
60723;DHT22;46574;52.818;6.516;2023-05-10T09:05:21;14.10;99.90
60723;DHT22;46574;52.818;6.516;2023-05-10T09:07:46;14.10;99.90
60723;DHT22;46574;52.818;6.516;2023-05-10T09:10:13;14.20;99.90
60723;DHT22;46574;52.818;6.516;2023-05-10T09:12:40;14.20;99.90
60723;DHT22;46574;52.818;6.516;2023-05-10T09:15:07;14.30;99.90
60723;DHT22;46574;52.818;6.516;2023-05-10T09:17:33;14.30;99.90
60723;DHT22;46574;52.818;6.516;2023-05-10T09:20:03;14.20;99.90
60723;DHT22;46574;52.818;6.516;2023-05-10T09:22:31;14.30;99.90
60723;DHT22;46574;52.818;6.516;2023-05-10T09:25:14;14.40;99.90
60723;DHT22;46574;52.818;6.516;2023-05-10T09:27:43;14.50;99.90
60723;DHT22;46574;52.818;6.516;2023-05-10T09:30:10;14.50;99.90
60723;DHT22;46574;52.818;6.516;2023-05-10T09:32:41;14.50;99.90
60723;DHT22;46574;52.818;6.516;2023-05-10T09:35:08;14.70;99.90
60723;DHT22;46574;52.818;6.516;2023-05-10T09:37:34;14.60;99.90
60723;DHT22;46574;52.818;6.516;2023-05-10T09:40:00;14.60;99.90
60723;DHT22;46574;52.818;6.516;2023-05-10T09:42:25;14.60;99.90
60723;DHT22;46574;52.818;6.516;2023-05-10T09:44:51;14.70;99.90
60723;DHT22;46574;52.818;6.516;2023-05-10T09:47:17;14.80;99.90
60723;DHT22;46574;52.818;6.516;2023-05-10T09:49:48;14.90;99.90
60723;DHT22;46574;52.818;6.516;2023-05-10T09:52:14;15.00;99.90
60723;DHT22;46574;52.818;6.516;2023-05-10T09:54:52;15.00;99.90
60723;DHT22;46574;52.818;6.516;2023-05-10T09:57:22;15.00;99.90
60723;DHT22;46574;52.818;6.516;2023-05-10T09:59:48;15.10;99.90
60723;DHT22;46574;52.818;6.516;2023-05-10T10:02:14;15.10;99.90
60723;DHT22;46574;52.818;6.516;2023-05-10T10:04:40;15.10;99.90
60723;DHT22;46574;52.818;6.516;2023-05-10T10:07:07;15.10;99.90
60723;DHT22;46574;52.818;6.516;2023-05-10T10:09:34;15.10;99.90
60723;DHT22;46574;52.818;6.516;2023-05-10T10:12:01;15.00;99.90
60723;DHT22;46574;52.818;6.516;2023-05-10T10:14:28;15.00;99.90
60723;DHT22;46574;52.818;6.516;2023-05-10T10:16:54;15.10;99.90
60723;DHT22;46574;52.818;6.516;2023-05-10T10:19:20;15.20;99.90
60723;DHT22;46574;52.818;6.516;2023-05-10T10:21:47;15.30;99.90
60723;DHT22;46574;52.818;6.516;2023-05-10T10:24:12;15.20;99.90
60723;DHT22;46574;52.818;6.516;2023-05-10T10:26:38;15.20;99.90
60723;DHT22;46574;52.818;6.516;2023-05-10T10:29:18;15.20;99.90
60723;DHT22;46574;52.818;6.516;2023-05-10T10:34:54;15.00;99.90
60723;DHT22;46574;52.818;6.516;2023-05-10T10:37:20;15.00;99.90
60723;DHT22;46574;52.818;6.516;2023-05-10T10:39:48;15.00;99.90
60723;DHT22;46574;52.818;6.516;2023-05-10T10:42:44;15.00;99.90
60723;DHT22;46574;52.818;6.516;2023-05-10T10:45:12;15.00;99.90
60723;DHT22;46574;52.818;6.516;2023-05-10T10:47:38;15.00;99.90
60723;DHT22;46574;52.818;6.516;2023-05-10T10:50:06;15.00;99.90
60723;DHT22;46574;52.818;6.516;2023-05-10T10:52:34;15.10;99.90
60723;DHT22;46574;52.818;6.516;2023-05-10T10:55:06;15.10;99.90
60723;DHT22;46574;52.818;6.516;2023-05-10T10:57:49;15.10;99.90
60723;DHT22;46574;52.818;6.516;2023-05-10T11:00:24;15.10;99.90
60723;DHT22;46574;52.818;6.516;2023-05-10T11:03:09;15.20;99.90
60723;DHT22;46574;52.818;6.516;2023-05-10T11:05:42;15.20;99.90
60723;DHT22;46574;52.818;6.516;2023-05-10T11:08:09;15.20;99.90
60723;DHT22;46574;52.818;6.516;2023-05-10T11:10:36;15.20;99.90
60723;DHT22;46574;52.818;6.516;2023-05-10T11:13:02;15.20;99.90
60723;DHT22;46574;52.818;6.516;2023-05-10T11:15:33;15.20;99.90
60723;DHT22;46574;52.818;6.516;2023-05-10T11:18:00;15.30;99.90
60723;DHT22;46574;52.818;6.516;2023-05-10T11:20:41;15.30;99.90
60723;DHT22;46574;52.818;6.516;2023-05-10T11:23:14;15.30;99.90
60723;DHT22;46574;52.818;6.516;2023-05-10T11:25:44;15.30;99.90
60723;DHT22;46574;52.818;6.516;2023-05-10T11:28:13;15.20;99.90
60723;DHT22;46574;52.818;6.516;2023-05-10T11:30:39;15.20;99.90
60723;DHT22;46574;52.818;6.516;2023-05-10T11:33:06;15.30;99.90
60723;DHT22;46574;52.818;6.516;2023-05-10T11:35:37;15.40;99.90
60723;DHT22;46574;52.818;6.516;2023-05-10T11:38:08;15.40;99.90
60723;DHT22;46574;52.818;6.516;2023-05-10T11:40:34;15.50;99.90
60723;DHT22;46574;52.818;6.516;2023-05-10T11:43:00;15.50;99.90
60723;DHT22;46574;52.818;6.516;2023-05-10T11:45:26;15.60;99.90
60723;DHT22;46574;52.818;6.516;2023-05-10T11:47:55;15.70;99.90
60723;DHT22;46574;52.818;6.516;2023-05-10T11:50:21;15.70;99.90
60723;DHT22;46574;52.818;6.516;2023-05-10T11:52:53;15.80;99.90
60723;DHT22;46574;52.818;6.516;2023-05-10T11:55:19;15.70;99.90
60723;DHT22;46574;52.818;6.516;2023-05-10T11:57:45;15.60;99.90
60723;DHT22;46574;52.818;6.516;2023-05-10T12:00:12;15.70;99.90
60723;DHT22;46574;52.818;6.516;2023-05-10T12:02:38;15.60;99.90
60723;DHT22;46574;52.818;6.516;2023-05-10T12:05:05;15.50;99.90
60723;DHT22;46574;52.818;6.516;2023-05-10T12:07:31;15.60;99.90
60723;DHT22;46574;52.818;6.516;2023-05-10T12:10:11;15.60;99.90
60723;DHT22;46574;52.818;6.516;2023-05-10T12:12:45;15.70;99.90
60723;DHT22;46574;52.818;6.516;2023-05-10T12:15:21;15.70;99.90
60723;DHT22;46574;52.818;6.516;2023-05-10T12:17:48;15.80;99.90
60723;DHT22;46574;52.818;6.516;2023-05-10T12:20:15;15.70;99.90
60723;DHT22;46574;52.818;6.516;2023-05-10T12:22:44;15.60;99.90
60723;DHT22;46574;52.818;6.516;2023-05-10T12:25:10;15.50;99.90
60723;DHT22;46574;52.818;6.516;2023-05-10T12:27:36;15.50;99.90
60723;DHT22;46574;52.818;6.516;2023-05-10T12:30:02;15.40;99.90
60723;DHT22;46574;52.818;6.516;2023-05-10T12:32:44;15.40;99.90
60723;DHT22;46574;52.818;6.516;2023-05-10T12:35:10;15.40;99.90
60723;DHT22;46574;52.818;6.516;2023-05-10T12:37:36;15.50;99.90
60723;DHT22;46574;52.818;6.516;2023-05-10T12:40:08;15.40;99.90
60723;DHT22;46574;52.818;6.516;2023-05-10T12:42:35;15.50;99.90
60723;DHT22;46574;52.818;6.516;2023-05-10T12:45:02;15.60;99.90
60723;DHT22;46574;52.818;6.516;2023-05-10T12:47:28;15.50;99.90
60723;DHT22;46574;52.818;6.516;2023-05-10T12:49:53;15.50;99.90
60723;DHT22;46574;52.818;6.516;2023-05-10T12:52:19;15.40;99.90
60723;DHT22;46574;52.818;6.516;2023-05-10T12:54:46;15.50;99.90
60723;DHT22;46574;52.818;6.516;2023-05-10T12:57:12;15.50;99.90
60723;DHT22;46574;52.818;6.516;2023-05-10T12:59:38;15.50;99.90
60723;DHT22;46574;52.818;6.516;2023-05-10T13:02:04;15.40;99.90
60723;DHT22;46574;52.818;6.516;2023-05-10T13:04:29;15.40;99.90
60723;DHT22;46574;52.818;6.516;2023-05-10T13:06:55;15.30;99.90
60723;DHT22;46574;52.818;6.516;2023-05-10T13:09:24;15.10;99.90
60723;DHT22;46574;52.818;6.516;2023-05-10T13:11:50;15.10;99.90
60723;DHT22;46574;52.818;6.516;2023-05-10T13:14:18;15.00;99.90
60723;DHT22;46574;52.818;6.516;2023-05-10T13:16:46;15.00;99.90
60723;DHT22;46574;52.818;6.516;2023-05-10T13:19:12;15.00;99.90
60723;DHT22;46574;52.818;6.516;2023-05-10T13:21:38;15.00;99.90
60723;DHT22;46574;52.818;6.516;2023-05-10T13:24:06;15.00;99.90
60723;DHT22;46574;52.818;6.516;2023-05-10T13:26:32;15.00;99.90
60723;DHT22;46574;52.818;6.516;2023-05-10T13:28:58;15.00;99.90
60723;DHT22;46574;52.818;6.516;2023-05-10T13:31:23;15.10;99.90
60723;DHT22;46574;52.818;6.516;2023-05-10T13:33:49;15.20;99.90
60723;DHT22;46574;52.818;6.516;2023-05-10T13:36:15;15.10;99.90
60723;DHT22;46574;52.818;6.516;2023-05-10T13:38:40;15.10;99.90
60723;DHT22;46574;52.818;6.516;2023-05-10T13:41:06;15.10;99.90
60723;DHT22;46574;52.818;6.516;2023-05-10T13:43:31;15.20;99.90
60723;DHT22;46574;52.818;6.516;2023-05-10T13:45:57;15.20;99.90
60723;DHT22;46574;52.818;6.516;2023-05-10T13:48:23;15.20;99.90
60723;DHT22;46574;52.818;6.516;2023-05-10T13:50:48;15.20;99.90
60723;DHT22;46574;52.818;6.516;2023-05-10T13:53:15;15.40;99.90
60723;DHT22;46574;52.818;6.516;2023-05-10T13:55:41;15.40;99.90
60723;DHT22;46574;52.818;6.516;2023-05-10T13:58:07;15.50;99.90
60723;DHT22;46574;52.818;6.516;2023-05-10T14:00:32;15.50;99.90
60723;DHT22;46574;52.818;6.516;2023-05-10T14:02:58;15.60;99.90
60723;DHT22;46574;52.818;6.516;2023-05-10T14:05:24;15.60;99.90
60723;DHT22;46574;52.818;6.516;2023-05-10T14:07:52;15.70;99.90
60723;DHT22;46574;52.818;6.516;2023-05-10T14:10:19;15.80;99.90
60723;DHT22;46574;52.818;6.516;2023-05-10T14:12:44;15.80;99.90
60723;DHT22;46574;52.818;6.516;2023-05-10T14:15:10;15.80;99.90
60723;DHT22;46574;52.818;6.516;2023-05-10T14:17:37;15.80;99.90
60723;DHT22;46574;52.818;6.516;2023-05-10T14:20:03;15.80;99.90
60723;DHT22;46574;52.818;6.516;2023-05-10T14:22:29;15.80;99.90
60723;DHT22;46574;52.818;6.516;2023-05-10T14:24:55;15.70;99.90
60723;DHT22;46574;52.818;6.516;2023-05-10T14:27:20;15.70;99.90
60723;DHT22;46574;52.818;6.516;2023-05-10T14:29:47;15.60;99.90
60723;DHT22;46574;52.818;6.516;2023-05-10T14:32:13;15.50;99.90
60723;DHT22;46574;52.818;6.516;2023-05-10T14:34:38;15.50;99.90
60723;DHT22;46574;52.818;6.516;2023-05-10T14:37:04;15.60;99.90
60723;DHT22;46574;52.818;6.516;2023-05-10T14:39:30;15.60;99.90
60723;DHT22;46574;52.818;6.516;2023-05-10T14:41:56;15.50;99.90
60723;DHT22;46574;52.818;6.516;2023-05-10T14:44:22;15.60;99.90
60723;DHT22;46574;52.818;6.516;2023-05-10T14:46:48;15.60;99.90
60723;DHT22;46574;52.818;6.516;2023-05-10T14:49:15;15.60;99.90
60723;DHT22;46574;52.818;6.516;2023-05-10T14:51:40;15.60;99.90
60723;DHT22;46574;52.818;6.516;2023-05-10T14:54:06;15.70;99.90
60723;DHT22;46574;52.818;6.516;2023-05-10T14:56:32;15.70;99.90
60723;DHT22;46574;52.818;6.516;2023-05-10T14:58:58;15.70;99.90
60723;DHT22;46574;52.818;6.516;2023-05-10T15:01:24;15.70;99.90
60723;DHT22;46574;52.818;6.516;2023-05-10T15:03:50;15.80;99.90
60723;DHT22;46574;52.818;6.516;2023-05-10T15:06:16;15.80;99.90
60723;DHT22;46574;52.818;6.516;2023-05-10T15:08:42;15.80;99.90
60723;DHT22;46574;52.818;6.516;2023-05-10T15:11:08;15.90;99.90
60723;DHT22;46574;52.818;6.516;2023-05-10T15:13:34;15.80;99.90
60723;DHT22;46574;52.818;6.516;2023-05-10T15:15:59;15.90;99.90
60723;DHT22;46574;52.818;6.516;2023-05-10T15:18:25;15.90;99.90
60723;DHT22;46574;52.818;6.516;2023-05-10T15:20:51;16.00;99.90
60723;DHT22;46574;52.818;6.516;2023-05-10T15:23:17;16.00;99.90
60723;DHT22;46574;52.818;6.516;2023-05-10T15:25:42;16.00;99.90
60723;DHT22;46574;52.818;6.516;2023-05-10T15:28:08;16.00;99.90
60723;DHT22;46574;52.818;6.516;2023-05-10T15:30:34;16.00;99.90
60723;DHT22;46574;52.818;6.516;2023-05-10T15:32:59;16.00;99.90
60723;DHT22;46574;52.818;6.516;2023-05-10T15:35:26;16.10;99.90
60723;DHT22;46574;52.818;6.516;2023-05-10T15:37:52;16.00;99.90
60723;DHT22;46574;52.818;6.516;2023-05-10T15:40:17;16.10;99.90
60723;DHT22;46574;52.818;6.516;2023-05-10T15:42:43;16.20;99.90
60723;DHT22;46574;52.818;6.516;2023-05-10T15:45:10;16.20;99.90